TFD244 VVTS-VVCI
Flight info
| Callsign | TFD244 |
|---|---|
| Flight time | 1h 30m |
| Altitude | 31000 |
| Route | KADUM2D PATMA Q2 BUVAN Q4 MAREL BATOT1B |
| Aircraft | B739/M-SDE2E3FGHIRWXY/LB1 |
Departure
| Time | 2026-04-15 14:51 |
|---|---|
| Airport | Tan Son Nhat International Airport (VVTS) |
Arrival
| Time | 2026-04-15 16:22 |
|---|---|
| Airport | Cat Bi International Airport (VVCI) |
| Time | Latitude | Longitude | Altitude | Speed | Heading |
|---|---|---|---|---|---|
| 2026-04-15 14:10 | 10.81523 | 106.66132 | 31 ft | 0 kts | 95° |
| 2026-04-15 14:37 | 10.81524 | 106.66120 | 30 ft | 2 kts | 94° |
| 2026-04-15 14:38 | 10.81525 | 106.66105 | 30 ft | 2 kts | 95° |
| 2026-04-15 14:38 | 10.81526 | 106.66095 | 30 ft | 1 kts | 95° |
| 2026-04-15 14:38 | 10.81526 | 106.66080 | 29 ft | 2 kts | 77° |
| 2026-04-15 14:38 | 10.81521 | 106.66066 | 29 ft | 2 kts | 63° |
| 2026-04-15 14:39 | 10.81512 | 106.66053 | 29 ft | 2 kts | 46° |
| 2026-04-15 14:39 | 10.81501 | 106.66044 | 29 ft | 2 kts | 31° |
| 2026-04-15 14:39 | 10.81487 | 106.66037 | 29 ft | 2 kts | 15° |
| 2026-04-15 14:39 | 10.81478 | 106.66035 | 29 ft | 1 kts | 6° |
| 2026-04-15 14:40 | 10.81473 | 106.66035 | 29 ft | 0 kts | 5° |
| 2026-04-15 14:42 | 10.81475 | 106.66035 | 29 ft | 1 kts | 5° |
| 2026-04-15 14:42 | 10.81494 | 106.66036 | 29 ft | 5 kts | 5° |
| 2026-04-15 14:42 | 10.81530 | 106.66040 | 29 ft | 4 kts | 5° |
| 2026-04-15 14:43 | 10.81571 | 106.66043 | 29 ft | 7 kts | 5° |
| 2026-04-15 14:43 | 10.81642 | 106.66051 | 28 ft | 12 kts | 5° |
| 2026-04-15 14:43 | 10.81737 | 106.66059 | 28 ft | 13 kts | 5° |
| 2026-04-15 14:43 | 10.81833 | 106.66071 | 28 ft | 13 kts | 19° |
| 2026-04-15 14:44 | 10.81885 | 106.66135 | 28 ft | 11 kts | 67° |
| 2026-04-15 14:44 | 10.81916 | 106.66217 | 28 ft | 15 kts | 70° |
| 2026-04-15 14:44 | 10.81957 | 106.66327 | 28 ft | 16 kts | 69° |
| 2026-04-15 14:44 | 10.81997 | 106.66429 | 28 ft | 14 kts | 69° |
| 2026-04-15 14:45 | 10.82026 | 106.66506 | 28 ft | 5 kts | 70° |
| 2026-04-15 14:45 | 10.82031 | 106.66520 | 28 ft | 0 kts | 70° |
| 2026-04-15 14:45 | 10.82033 | 106.66524 | 28 ft | 0 kts | 70° |
| 2026-04-15 14:45 | 10.82037 | 106.66537 | 29 ft | 4 kts | 70° |
| 2026-04-15 14:46 | 10.82052 | 106.66576 | 29 ft | 7 kts | 70° |
| 2026-04-15 14:46 | 10.82076 | 106.66642 | 29 ft | 11 kts | 69° |
| 2026-04-15 14:46 | 10.82110 | 106.66730 | 31 ft | 13 kts | 69° |
| 2026-04-15 14:46 | 10.82143 | 106.66817 | 31 ft | 12 kts | 69° |
| 2026-04-15 14:47 | 10.82176 | 106.66908 | 32 ft | 14 kts | 70° |
| 2026-04-15 14:47 | 10.82211 | 106.66990 | 34 ft | 10 kts | 51° |
| 2026-04-15 14:47 | 10.82260 | 106.67005 | 34 ft | 0 kts | 346° |
| 2026-04-15 14:47 | 10.82263 | 106.67004 | 34 ft | 1 kts | 344° |
| 2026-04-15 14:48 | 10.82264 | 106.67004 | 34 ft | 0 kts | 344° |
| 2026-04-15 14:48 | 10.82268 | 106.67003 | 34 ft | 2 kts | 342° |
| 2026-04-15 14:49 | 10.82311 | 106.66979 | 34 ft | 10 kts | 319° |
| 2026-04-15 14:49 | 10.82360 | 106.66928 | 33 ft | 8 kts | 266° |
| 2026-04-15 14:49 | 10.82356 | 106.66913 | 33 ft | 0 kts | 249° |
| 2026-04-15 14:50 | 10.82346 | 106.66885 | 32 ft | 18 kts | 249° |
| 2026-04-15 14:50 | 10.82200 | 106.66502 | 31 ft | 96 kts | 249° |
| 2026-04-15 14:51 | 10.81873 | 106.65636 | 29 ft | 162 kts | 249° |
| 2026-04-15 14:51 | 10.81415 | 106.64415 | 299 ft | 194 kts | 248° |
| 2026-04-15 14:51 | 10.80983 | 106.63157 | 1253 ft | 189 kts | 246° |
| 2026-04-15 14:51 | 10.80490 | 106.61862 | 1799 ft | 209 kts | 244° |
| 2026-04-15 14:52 | 10.79928 | 106.60429 | 2432 ft | 227 kts | 245° |
| 2026-04-15 14:52 | 10.79344 | 106.58878 | 3085 ft | 245 kts | 246° |
| 2026-04-15 14:52 | 10.78945 | 106.57147 | 3750 ft | 264 kts | 269° |
| 2026-04-15 14:52 | 10.79371 | 106.55290 | 4450 ft | 280 kts | 297° |
| 2026-04-15 14:53 | 10.80562 | 106.53732 | 5427 ft | 281 kts | 320° |
| 2026-04-15 14:53 | 10.82190 | 106.52742 | 6417 ft | 278 kts | 343° |
| 2026-04-15 14:53 | 10.84116 | 106.52549 | 7275 ft | 279 kts | 8° |
| 2026-04-15 14:53 | 10.85971 | 106.53066 | 8091 ft | 282 kts | 25° |
| 2026-04-15 14:54 | 10.87608 | 106.54124 | 8949 ft | 282 kts | 40° |
| 2026-04-15 14:54 | 10.89112 | 106.55433 | 9743 ft | 287 kts | 43° |
| 2026-04-15 14:54 | 10.90605 | 106.56792 | 10553 ft | 289 kts | 43° |
| 2026-04-15 14:54 | 10.92147 | 106.58176 | 11005 ft | 305 kts | 42° |
| 2026-04-15 14:55 | 10.93791 | 106.59617 | 11468 ft | 320 kts | 41° |
| 2026-04-15 14:55 | 10.95536 | 106.61125 | 11880 ft | 336 kts | 41° |
| 2026-04-15 14:55 | 10.97378 | 106.62710 | 12286 ft | 351 kts | 41° |
| 2026-04-15 14:55 | 10.99279 | 106.64344 | 12680 ft | 366 kts | 41° |
| 2026-04-15 14:56 | 11.01228 | 106.66020 | 13366 ft | 370 kts | 41° |
| 2026-04-15 14:56 | 11.03216 | 106.67731 | 14035 ft | 374 kts | 41° |
| 2026-04-15 14:56 | 11.05208 | 106.69449 | 14651 ft | 379 kts | 41° |
| 2026-04-15 14:56 | 11.07221 | 106.71184 | 15291 ft | 383 kts | 41° |
| 2026-04-15 14:57 | 11.09265 | 106.72949 | 15848 ft | 388 kts | 41° |
| 2026-04-15 14:57 | 11.11329 | 106.74731 | 16464 ft | 391 kts | 41° |
| 2026-04-15 14:57 | 11.13435 | 106.76550 | 17006 ft | 396 kts | 41° |
| 2026-04-15 14:57 | 11.15523 | 106.78352 | 17476 ft | 401 kts | 41° |
| 2026-04-15 14:58 | 11.17674 | 106.80210 | 17990 ft | 405 kts | 41° |
| 2026-04-15 14:58 | 11.19851 | 106.82091 | 18465 ft | 410 kts | 41° |
| 2026-04-15 14:58 | 11.22048 | 106.83991 | 18960 ft | 414 kts | 41° |
| 2026-04-15 14:58 | 11.24261 | 106.85902 | 19458 ft | 418 kts | 42° |
| 2026-04-15 14:59 | 11.26463 | 106.87804 | 19928 ft | 421 kts | 41° |
| 2026-04-15 14:59 | 11.28712 | 106.89746 | 20382 ft | 425 kts | 42° |
| 2026-04-15 14:59 | 11.30986 | 106.91711 | 20848 ft | 428 kts | 41° |
| 2026-04-15 14:59 | 11.33241 | 106.93660 | 21293 ft | 431 kts | 42° |
| 2026-04-15 15:00 | 11.35549 | 106.95655 | 21718 ft | 434 kts | 42° |
| 2026-04-15 15:00 | 11.37856 | 106.97652 | 22134 ft | 437 kts | 42° |
| 2026-04-15 15:00 | 11.40190 | 106.99671 | 22546 ft | 440 kts | 41° |
| 2026-04-15 15:00 | 11.42516 | 107.01685 | 22951 ft | 443 kts | 41° |
| 2026-04-15 15:01 | 11.44904 | 107.03752 | 23354 ft | 446 kts | 41° |
| 2026-04-15 15:01 | 11.47277 | 107.05807 | 23721 ft | 449 kts | 41° |
| 2026-04-15 15:01 | 11.49650 | 107.07862 | 24098 ft | 452 kts | 41° |
| 2026-04-15 15:01 | 11.52073 | 107.09962 | 24536 ft | 454 kts | 41° |
| 2026-04-15 15:02 | 11.54483 | 107.12051 | 24930 ft | 456 kts | 41° |
| 2026-04-15 15:02 | 11.56903 | 107.14148 | 25280 ft | 459 kts | 41° |
| 2026-04-15 15:02 | 11.59313 | 107.16237 | 25662 ft | 460 kts | 41° |
| 2026-04-15 15:02 | 11.61785 | 107.18381 | 25980 ft | 464 kts | 41° |
| 2026-04-15 15:03 | 11.64236 | 107.20508 | 26334 ft | 466 kts | 41° |
| 2026-04-15 15:03 | 11.66722 | 107.22666 | 26629 ft | 469 kts | 41° |
| 2026-04-15 15:03 | 11.69229 | 107.24844 | 26990 ft | 471 kts | 41° |
| 2026-04-15 15:03 | 11.71693 | 107.26981 | 27553 ft | 467 kts | 41° |
| 2026-04-15 15:04 | 11.74183 | 107.29144 | 28003 ft | 466 kts | 41° |
| 2026-04-15 15:04 | 11.76631 | 107.31271 | 28417 ft | 466 kts | 40° |
| 2026-04-15 15:04 | 11.79120 | 107.33433 | 28876 ft | 464 kts | 40° |
| 2026-04-15 15:04 | 11.81577 | 107.35568 | 29272 ft | 464 kts | 40° |
| 2026-04-15 15:05 | 11.84023 | 107.37695 | 29682 ft | 463 kts | 40° |
| 2026-04-15 15:05 | 11.86453 | 107.39808 | 30074 ft | 463 kts | 40° |
| 2026-04-15 15:05 | 11.88926 | 107.41959 | 30446 ft | 462 kts | 40° |
| 2026-04-15 15:05 | 11.91357 | 107.44076 | 30843 ft | 461 kts | 40° |
| 2026-04-15 15:06 | 11.96279 | 107.48361 | 30994 ft | 463 kts | 40° |
| 2026-04-15 15:06 | 12.01219 | 107.52663 | 31004 ft | 474 kts | 40° |
| 2026-04-15 15:07 | 12.06331 | 107.57115 | 31017 ft | 489 kts | 40° |
| 2026-04-15 15:07 | 12.11623 | 107.61727 | 31031 ft | 496 kts | 40° |
| 2026-04-15 15:08 | 12.16832 | 107.66272 | 31061 ft | 493 kts | 40° |
| 2026-04-15 15:08 | 12.22084 | 107.70854 | 31092 ft | 494 kts | 40° |
| 2026-04-15 15:09 | 12.27340 | 107.75443 | 31126 ft | 494 kts | 40° |
| 2026-04-15 15:09 | 12.32939 | 107.79531 | 31081 ft | 493 kts | 25° |
| 2026-04-15 15:10 | 12.36153 | 107.80701 | 31058 ft | 492 kts | 12° |
| 2026-04-15 15:10 | 12.39551 | 107.81181 | 31037 ft | 492 kts | 4° |
| 2026-04-15 15:10 | 12.46412 | 107.81448 | 30989 ft | 492 kts | 0° |
| 2026-04-15 15:11 | 12.53271 | 107.81513 | 30959 ft | 492 kts | 359° |
| 2026-04-15 15:11 | 12.60148 | 107.81577 | 30968 ft | 494 kts | 360° |
| 2026-04-15 15:12 | 12.63553 | 107.81622 | 31318 ft | 492 kts | 360° |
| 2026-04-15 15:12 | 12.66970 | 107.81676 | 31879 ft | 486 kts | 360° |
| 2026-04-15 15:12 | 12.70362 | 107.81735 | 32353 ft | 483 kts | 360° |
| 2026-04-15 15:12 | 12.73794 | 107.81799 | 32543 ft | 485 kts | 360° |
| 2026-04-15 15:13 | 12.77186 | 107.81862 | 32887 ft | 484 kts | 360° |
| 2026-04-15 15:13 | 12.80531 | 107.81927 | 33223 ft | 483 kts | 360° |
| 2026-04-15 15:13 | 12.83924 | 107.81993 | 33550 ft | 482 kts | 0° |
| 2026-04-15 15:13 | 12.87295 | 107.82059 | 33854 ft | 481 kts | 360° |
| 2026-04-15 15:14 | 12.90649 | 107.82126 | 34130 ft | 481 kts | 360° |
| 2026-04-15 15:14 | 12.93963 | 107.82192 | 34398 ft | 480 kts | 0° |
| 2026-04-15 15:14 | 12.97340 | 107.82259 | 34663 ft | 480 kts | 360° |
| 2026-04-15 15:14 | 13.00653 | 107.82326 | 34888 ft | 480 kts | 360° |
| 2026-04-15 15:15 | 13.07390 | 107.82458 | 34905 ft | 480 kts | 360° |
| 2026-04-15 15:15 | 13.14080 | 107.82591 | 34905 ft | 479 kts | 360° |
| 2026-04-15 15:16 | 13.20716 | 107.82723 | 34905 ft | 479 kts | 0° |
| 2026-04-15 15:16 | 13.27447 | 107.82856 | 34907 ft | 479 kts | 360° |
| 2026-04-15 15:17 | 13.34126 | 107.82989 | 34908 ft | 480 kts | 360° |
| 2026-04-15 15:17 | 13.40782 | 107.83126 | 34912 ft | 480 kts | 0° |
| 2026-04-15 15:18 | 13.47514 | 107.83268 | 34915 ft | 480 kts | 0° |
| 2026-04-15 15:18 | 13.54198 | 107.83408 | 34920 ft | 480 kts | 0° |
| 2026-04-15 15:19 | 13.60847 | 107.83546 | 34926 ft | 479 kts | 360° |
| 2026-04-15 15:19 | 13.67547 | 107.83688 | 34934 ft | 480 kts | 0° |
| 2026-04-15 15:20 | 13.74258 | 107.83827 | 34942 ft | 480 kts | 0° |
| 2026-04-15 15:20 | 13.80945 | 107.83967 | 34947 ft | 480 kts | 0° |
| 2026-04-15 15:21 | 13.87649 | 107.84106 | 34951 ft | 480 kts | 0° |
| 2026-04-15 15:21 | 13.94337 | 107.84245 | 34953 ft | 480 kts | 0° |
| 2026-04-15 15:22 | 14.01004 | 107.84383 | 34954 ft | 480 kts | 360° |
| 2026-04-15 15:22 | 14.07698 | 107.84020 | 34966 ft | 479 kts | 349° |
| 2026-04-15 15:23 | 14.14191 | 107.82514 | 34975 ft | 478 kts | 344° |
| 2026-04-15 15:23 | 14.20622 | 107.80750 | 34987 ft | 478 kts | 344° |
| 2026-04-15 15:24 | 14.27097 | 107.79046 | 35007 ft | 478 kts | 345° |
| 2026-04-15 15:24 | 14.33534 | 107.77459 | 35003 ft | 478 kts | 345° |
| 2026-04-15 15:25 | 14.40059 | 107.75908 | 35006 ft | 478 kts | 346° |
| 2026-04-15 15:25 | 14.46557 | 107.74382 | 35008 ft | 478 kts | 346° |
| 2026-04-15 15:26 | 14.53043 | 107.72864 | 35009 ft | 478 kts | 346° |
| 2026-04-15 15:26 | 14.59520 | 107.71347 | 35018 ft | 478 kts | 345° |
| 2026-04-15 15:27 | 14.66056 | 107.69814 | 35018 ft | 479 kts | 346° |
| 2026-04-15 15:27 | 14.72580 | 107.68283 | 35027 ft | 480 kts | 345° |
| 2026-04-15 15:28 | 14.79100 | 107.66751 | 35022 ft | 480 kts | 345° |
| 2026-04-15 15:28 | 14.85611 | 107.65221 | 35043 ft | 480 kts | 345° |
| 2026-04-15 15:29 | 14.92128 | 107.63688 | 35050 ft | 480 kts | 345° |
| 2026-04-15 15:29 | 14.98627 | 107.62158 | 35069 ft | 479 kts | 345° |
| 2026-04-15 15:30 | 15.05178 | 107.60616 | 35077 ft | 480 kts | 345° |
| 2026-04-15 15:30 | 15.11699 | 107.59079 | 35063 ft | 480 kts | 345° |
| 2026-04-15 15:31 | 15.18249 | 107.57534 | 35042 ft | 481 kts | 345° |
| 2026-04-15 15:31 | 15.24762 | 107.55997 | 35017 ft | 481 kts | 345° |
| 2026-04-15 15:32 | 15.31301 | 107.54453 | 35012 ft | 480 kts | 345° |
| 2026-04-15 15:32 | 15.37834 | 107.52910 | 35019 ft | 480 kts | 345° |
| 2026-04-15 15:33 | 15.44353 | 107.51369 | 35037 ft | 480 kts | 345° |
| 2026-04-15 15:33 | 15.50909 | 107.49818 | 35057 ft | 481 kts | 345° |
| 2026-04-15 15:34 | 15.57409 | 107.48281 | 35041 ft | 481 kts | 345° |
| 2026-04-15 15:34 | 15.63976 | 107.46726 | 35016 ft | 481 kts | 345° |
| 2026-04-15 15:35 | 15.70464 | 107.45189 | 34998 ft | 481 kts | 345° |
| 2026-04-15 15:35 | 15.77060 | 107.43624 | 34981 ft | 482 kts | 345° |
| 2026-04-15 15:36 | 15.83592 | 107.42074 | 34991 ft | 482 kts | 345° |
| 2026-04-15 15:36 | 15.90134 | 107.40520 | 34996 ft | 482 kts | 345° |
| 2026-04-15 15:37 | 15.96708 | 107.38957 | 35004 ft | 481 kts | 345° |
| 2026-04-15 15:37 | 16.03226 | 107.37406 | 35011 ft | 481 kts | 345° |
| 2026-04-15 15:38 | 16.09782 | 107.35847 | 34989 ft | 481 kts | 345° |
| 2026-04-15 15:38 | 16.16314 | 107.34293 | 34968 ft | 482 kts | 345° |
| 2026-04-15 15:39 | 16.22850 | 107.32735 | 34941 ft | 482 kts | 345° |
| 2026-04-15 15:39 | 16.29386 | 107.31177 | 34910 ft | 482 kts | 345° |
| 2026-04-15 15:40 | 16.35922 | 107.29617 | 34899 ft | 481 kts | 345° |
| 2026-04-15 15:40 | 16.42484 | 107.28050 | 34882 ft | 481 kts | 345° |
| 2026-04-15 15:41 | 16.48995 | 107.26494 | 34852 ft | 481 kts | 345° |
| 2026-04-15 15:41 | 16.55562 | 107.24924 | 34838 ft | 481 kts | 345° |
| 2026-04-15 15:42 | 16.62086 | 107.23363 | 34832 ft | 481 kts | 345° |
| 2026-04-15 15:42 | 16.68608 | 107.21802 | 34816 ft | 481 kts | 345° |
| 2026-04-15 15:43 | 16.75151 | 107.20235 | 34796 ft | 481 kts | 345° |
| 2026-04-15 15:43 | 16.81698 | 107.18665 | 34784 ft | 481 kts | 345° |
| 2026-04-15 15:44 | 16.88203 | 107.17104 | 34779 ft | 480 kts | 345° |
| 2026-04-15 15:44 | 16.94748 | 107.15533 | 34785 ft | 481 kts | 345° |
| 2026-04-15 15:45 | 17.01309 | 107.13957 | 34766 ft | 481 kts | 345° |
| 2026-04-15 15:45 | 17.07832 | 107.12388 | 34770 ft | 481 kts | 345° |
| 2026-04-15 15:46 | 17.14385 | 107.10812 | 34769 ft | 480 kts | 345° |
| 2026-04-15 15:46 | 17.20908 | 107.09241 | 34770 ft | 481 kts | 345° |
| 2026-04-15 15:47 | 17.27433 | 107.07668 | 34781 ft | 481 kts | 345° |
| 2026-04-15 15:47 | 17.33955 | 107.06122 | 34783 ft | 482 kts | 346° |
| 2026-04-15 15:48 | 17.40558 | 107.04810 | 34783 ft | 482 kts | 347° |
| 2026-04-15 15:48 | 17.47155 | 107.03605 | 34786 ft | 483 kts | 347° |
| 2026-04-15 15:49 | 17.53794 | 107.02379 | 34781 ft | 481 kts | 347° |
| 2026-04-15 15:49 | 17.60392 | 107.01133 | 34777 ft | 482 kts | 347° |
| 2026-04-15 15:50 | 17.67015 | 106.99863 | 34770 ft | 482 kts | 347° |
| 2026-04-15 15:50 | 17.73632 | 106.98583 | 34762 ft | 482 kts | 347° |
| 2026-04-15 15:51 | 17.80253 | 106.97298 | 34766 ft | 482 kts | 347° |
| 2026-04-15 15:51 | 17.86839 | 106.96018 | 34765 ft | 483 kts | 347° |
| 2026-04-15 15:52 | 17.93435 | 106.94736 | 34762 ft | 483 kts | 347° |
| 2026-04-15 15:52 | 18.00071 | 106.93444 | 34762 ft | 482 kts | 347° |
| 2026-04-15 15:53 | 18.06660 | 106.92161 | 34760 ft | 482 kts | 347° |
| 2026-04-15 15:53 | 18.13282 | 106.90871 | 34765 ft | 482 kts | 347° |
| 2026-04-15 15:54 | 18.19888 | 106.89581 | 34772 ft | 483 kts | 347° |
| 2026-04-15 15:54 | 18.26523 | 106.88287 | 34773 ft | 483 kts | 347° |
| 2026-04-15 15:55 | 18.29770 | 106.87655 | 34769 ft | 472 kts | 347° |
| 2026-04-15 15:55 | 18.32982 | 106.87031 | 34772 ft | 460 kts | 347° |
| 2026-04-15 15:55 | 18.39337 | 106.85788 | 34772 ft | 471 kts | 347° |
| 2026-04-15 15:56 | 18.45864 | 106.84504 | 34774 ft | 484 kts | 347° |
| 2026-04-15 15:56 | 18.52529 | 106.83198 | 34769 ft | 484 kts | 347° |
| 2026-04-15 15:57 | 18.59129 | 106.81907 | 34769 ft | 483 kts | 347° |
| 2026-04-15 15:57 | 18.65776 | 106.80605 | 34763 ft | 483 kts | 347° |
| 2026-04-15 15:58 | 18.72393 | 106.79308 | 34755 ft | 483 kts | 346° |
| 2026-04-15 15:58 | 18.79000 | 106.78011 | 34755 ft | 483 kts | 347° |
| 2026-04-15 15:59 | 18.85611 | 106.76711 | 34756 ft | 483 kts | 346° |
| 2026-04-15 15:59 | 18.92264 | 106.75403 | 34758 ft | 483 kts | 346° |
| 2026-04-15 16:00 | 18.98760 | 106.74129 | 34755 ft | 463 kts | 346° |
| 2026-04-15 16:00 | 19.05017 | 106.72903 | 34702 ft | 455 kts | 346° |
| 2026-04-15 16:01 | 19.08132 | 106.72288 | 34266 ft | 453 kts | 346° |
| 2026-04-15 16:01 | 19.11231 | 106.71674 | 33612 ft | 452 kts | 346° |
| 2026-04-15 16:01 | 19.14292 | 106.71068 | 32898 ft | 452 kts | 346° |
| 2026-04-15 16:01 | 19.17399 | 106.70453 | 32400 ft | 448 kts | 346° |
| 2026-04-15 16:02 | 19.20467 | 106.69877 | 31870 ft | 446 kts | 348° |
| 2026-04-15 16:02 | 19.23532 | 106.69474 | 31298 ft | 447 kts | 353° |
| 2026-04-15 16:02 | 19.26646 | 106.69321 | 30724 ft | 447 kts | 356° |
| 2026-04-15 16:02 | 19.29768 | 106.69322 | 30132 ft | 447 kts | 358° |
| 2026-04-15 16:03 | 19.32852 | 106.69395 | 29543 ft | 446 kts | 359° |
| 2026-04-15 16:03 | 19.35967 | 106.69495 | 28947 ft | 445 kts | 359° |
| 2026-04-15 16:03 | 19.39056 | 106.69600 | 28343 ft | 445 kts | 359° |
| 2026-04-15 16:03 | 19.42134 | 106.69700 | 27752 ft | 443 kts | 359° |
| 2026-04-15 16:04 | 19.45219 | 106.69791 | 27157 ft | 442 kts | 359° |
| 2026-04-15 16:04 | 19.48298 | 106.69875 | 26564 ft | 441 kts | 359° |
| 2026-04-15 16:04 | 19.51343 | 106.69951 | 25972 ft | 439 kts | 359° |
| 2026-04-15 16:04 | 19.54432 | 106.70024 | 25368 ft | 438 kts | 359° |
| 2026-04-15 16:05 | 19.57461 | 106.70093 | 24771 ft | 436 kts | 359° |
| 2026-04-15 16:05 | 19.60495 | 106.70159 | 24175 ft | 434 kts | 359° |
| 2026-04-15 16:05 | 19.63489 | 106.70224 | 23590 ft | 432 kts | 359° |
| 2026-04-15 16:05 | 19.66515 | 106.70288 | 22999 ft | 430 kts | 359° |
| 2026-04-15 16:06 | 19.69480 | 106.70351 | 22413 ft | 428 kts | 359° |
| 2026-04-15 16:06 | 19.72467 | 106.70414 | 21823 ft | 426 kts | 359° |
| 2026-04-15 16:06 | 19.75395 | 106.70476 | 21239 ft | 424 kts | 359° |
| 2026-04-15 16:06 | 19.78385 | 106.70540 | 20645 ft | 422 kts | 359° |
| 2026-04-15 16:07 | 19.81315 | 106.70602 | 20058 ft | 420 kts | 359° |
| 2026-04-15 16:07 | 19.84230 | 106.70664 | 19473 ft | 418 kts | 359° |
| 2026-04-15 16:07 | 19.90011 | 106.70786 | 18305 ft | 414 kts | 359° |
| 2026-04-15 16:08 | 19.92884 | 106.70847 | 17719 ft | 412 kts | 359° |
| 2026-04-15 16:08 | 19.95746 | 106.70908 | 17152 ft | 410 kts | 359° |
| 2026-04-15 16:08 | 19.98588 | 106.70968 | 16585 ft | 408 kts | 359° |
| 2026-04-15 16:08 | 20.01443 | 106.71028 | 16003 ft | 406 kts | 359° |
| 2026-04-15 16:09 | 20.04250 | 106.71088 | 15421 ft | 398 kts | 359° |
| 2026-04-15 16:09 | 20.06979 | 106.71148 | 14855 ft | 388 kts | 359° |
| 2026-04-15 16:09 | 20.09621 | 106.71206 | 14311 ft | 378 kts | 359° |
| 2026-04-15 16:09 | 20.12258 | 106.71263 | 13760 ft | 369 kts | 359° |
| 2026-04-15 16:10 | 20.14813 | 106.71318 | 13241 ft | 361 kts | 359° |
| 2026-04-15 16:10 | 20.17317 | 106.71370 | 12699 ft | 360 kts | 359° |
| 2026-04-15 16:10 | 20.19816 | 106.71418 | 12172 ft | 358 kts | 358° |
| 2026-04-15 16:10 | 20.22294 | 106.71259 | 11658 ft | 354 kts | 349° |
| 2026-04-15 16:11 | 20.24693 | 106.70707 | 11146 ft | 350 kts | 342° |
| 2026-04-15 16:11 | 20.27008 | 106.69960 | 10754 ft | 344 kts | 340° |
| 2026-04-15 16:11 | 20.29253 | 106.69212 | 10632 ft | 330 kts | 340° |
| 2026-04-15 16:11 | 20.31398 | 106.68513 | 10536 ft | 317 kts | 340° |
| 2026-04-15 16:12 | 20.33469 | 106.67844 | 10358 ft | 303 kts | 340° |
| 2026-04-15 16:12 | 20.35459 | 106.67197 | 10164 ft | 291 kts | 339° |
| 2026-04-15 16:12 | 20.37368 | 106.66571 | 9743 ft | 289 kts | 339° |
| 2026-04-15 16:12 | 20.39284 | 106.65935 | 9261 ft | 289 kts | 339° |
| 2026-04-15 16:13 | 20.41227 | 106.65290 | 8776 ft | 289 kts | 339° |
| 2026-04-15 16:13 | 20.43140 | 106.64658 | 8300 ft | 288 kts | 339° |
| 2026-04-15 16:13 | 20.45052 | 106.64026 | 7840 ft | 288 kts | 340° |
| 2026-04-15 16:13 | 20.46958 | 106.63397 | 7364 ft | 288 kts | 340° |
| 2026-04-15 16:14 | 20.48869 | 106.62766 | 6899 ft | 287 kts | 340° |
| 2026-04-15 16:14 | 20.50780 | 106.62136 | 6432 ft | 287 kts | 340° |
| 2026-04-15 16:14 | 20.52684 | 106.61507 | 5973 ft | 286 kts | 340° |
| 2026-04-15 16:14 | 20.54578 | 106.60881 | 5547 ft | 286 kts | 341° |
| 2026-04-15 16:15 | 20.56508 | 106.60244 | 5198 ft | 285 kts | 341° |
| 2026-04-15 16:15 | 20.58368 | 106.59630 | 5052 ft | 277 kts | 341° |
| 2026-04-15 16:15 | 20.60211 | 106.59020 | 4786 ft | 274 kts | 341° |
| 2026-04-15 16:15 | 20.62014 | 106.58424 | 4542 ft | 270 kts | 341° |
| 2026-04-15 16:16 | 20.63797 | 106.57833 | 4328 ft | 265 kts | 341° |
| 2026-04-15 16:16 | 20.65547 | 106.57256 | 4135 ft | 259 kts | 342° |
| 2026-04-15 16:16 | 20.67247 | 106.56702 | 3936 ft | 250 kts | 342° |
| 2026-04-15 16:16 | 20.68885 | 106.56171 | 3667 ft | 244 kts | 342° |
| 2026-04-15 16:17 | 20.70509 | 106.55645 | 3349 ft | 240 kts | 342° |
| 2026-04-15 16:17 | 20.72091 | 106.55131 | 3050 ft | 236 kts | 342° |
| 2026-04-15 16:17 | 20.73685 | 106.54675 | 2750 ft | 234 kts | 350° |
| 2026-04-15 16:17 | 20.75253 | 106.54733 | 2515 ft | 222 kts | 22° |
| 2026-04-15 16:18 | 20.76391 | 106.55669 | 2424 ft | 194 kts | 65° |
| 2026-04-15 16:18 | 20.76873 | 106.56913 | 2429 ft | 174 kts | 77° |
| 2026-04-15 16:18 | 20.77310 | 106.58123 | 2407 ft | 176 kts | 76° |
| 2026-04-15 16:18 | 20.77724 | 106.59352 | 2208 ft | 173 kts | 78° |
| 2026-04-15 16:19 | 20.78104 | 106.60558 | 1966 ft | 168 kts | 78° |
| 2026-04-15 16:19 | 20.78458 | 106.61686 | 1744 ft | 156 kts | 78° |
| 2026-04-15 16:19 | 20.78795 | 106.62779 | 1572 ft | 155 kts | 78° |
| 2026-04-15 16:19 | 20.79123 | 106.63856 | 1344 ft | 153 kts | 77° |
| 2026-04-15 16:20 | 20.79449 | 106.64925 | 1155 ft | 152 kts | 77° |
| 2026-04-15 16:20 | 20.79773 | 106.66003 | 965 ft | 152 kts | 76° |
| 2026-04-15 16:20 | 20.80112 | 106.67081 | 738 ft | 151 kts | 75° |
| 2026-04-15 16:20 | 20.80441 | 106.68147 | 569 ft | 150 kts | 75° |
| 2026-04-15 16:21 | 20.80767 | 106.69186 | 393 ft | 147 kts | 74° |
| 2026-04-15 16:21 | 20.81079 | 106.70224 | 188 ft | 145 kts | 75° |
| 2026-04-15 16:21 | 20.81385 | 106.71259 | 34 ft | 147 kts | 75° |
| 2026-04-15 16:21 | 20.81657 | 106.72199 | 20 ft | 108 kts | 72° |
| 2026-04-15 16:22 | 20.81827 | 106.72768 | 17 ft | 52 kts | 71° |
| 2026-04-15 16:22 | 20.81920 | 106.73068 | 17 ft | 39 kts | 73° |
| 2026-04-15 16:22 | 20.82004 | 106.73347 | 17 ft | 37 kts | 73° |
| 2026-04-15 16:22 | 20.82078 | 106.73592 | 19 ft | 27 kts | 71° |
| 2026-04-15 16:23 | 20.82174 | 106.73672 | 20 ft | 17 kts | 346° |
| 2026-04-15 16:23 | 20.82262 | 106.73669 | 20 ft | 7 kts | 50° |
| 2026-04-15 16:23 | 20.82256 | 106.73713 | 20 ft | 3 kts | 131° |
| 2026-04-15 16:23 | 20.82252 | 106.73717 | 20 ft | 0 kts | 136° |
| 2026-04-15 16:24 | 20.82233 | 106.73729 | 20 ft | 9 kts | 159° |
| 2026-04-15 16:24 | 20.82144 | 106.73701 | 20 ft | 15 kts | 206° |
| 2026-04-15 16:24 | 20.82074 | 106.73589 | 19 ft | 23 kts | 253° |
| 2026-04-15 16:25 | 20.82013 | 106.73385 | 18 ft | 32 kts | 252° |
| 2026-04-15 16:25 | 20.81942 | 106.73144 | 17 ft | 35 kts | 252° |
| 2026-04-15 16:25 | 20.81865 | 106.72885 | 17 ft | 38 kts | 253° |
| 2026-04-15 16:25 | 20.81780 | 106.72604 | 17 ft | 40 kts | 253° |
| 2026-04-15 16:26 | 20.81713 | 106.72372 | 18 ft | 23 kts | 257° |
| 2026-04-15 16:26 | 20.81757 | 106.72289 | 17 ft | 11 kts | 341° |
| 2026-04-15 16:26 | 20.81832 | 106.72263 | 17 ft | 11 kts | 343° |
| 2026-04-15 16:26 | 20.81906 | 106.72238 | 17 ft | 10 kts | 343° |
| 2026-04-15 16:27 | 20.81964 | 106.72258 | 17 ft | 8 kts | 61° |
| 2026-04-15 16:27 | 20.81985 | 106.72317 | 17 ft | 7 kts | 70° |
| 2026-04-15 16:27 | 20.82004 | 106.72377 | 17 ft | 10 kts | 71° |
| 2026-04-15 16:27 | 20.82029 | 106.72456 | 17 ft | 11 kts | 73° |
| 2026-04-15 16:28 | 20.82041 | 106.72495 | 17 ft | 0 kts | 73° |
| 2026-04-15 16:28 | 20.82044 | 106.72507 | 17 ft | 3 kts | 73° |
| 2026-04-15 16:28 | 20.82054 | 106.72530 | 17 ft | 3 kts | 46° |
| 2026-04-15 16:28 | 20.82086 | 106.72523 | 17 ft | 8 kts | 343° |
| 2026-04-15 16:29 | 20.82133 | 106.72508 | 17 ft | 5 kts | 342° |
| 2026-04-15 16:29 | 20.82154 | 106.72501 | 17 ft | 1 kts | 342° |
| 2026-04-15 16:29 | 20.82159 | 106.72499 | 17 ft | 0 kts | 342° |